Canefield Airport

Partly cloudy with adjacent showers
27oC (81oF)

Partly cloudy with adjacent showers


Winds: Easterly @ 05kts/ 09km/h

Humidity: 71%

Barometric Pressure: 1010 mb

Accumulated Rainfall for October: 66.8 mm

Updated: 18:00 local time (22:00 UTC)

Douglas-Charles Airport

Cloudy with adjacent showers
24oC (75oF)

Cloudy with adjacent showers


Winds: North westerly @ 03kts / 06km/h

Humidity: 92%

Barometric Pressure: 1012 mb

Accumulated Rainfall for October: 194.2 mm

Updated: 20:00 local time (00:00 UTC)

Satellite Imagery

Satellite Imagery
Click image for larger view. (Source: National Hurricane Center).

Aviation Routine Report (METAR)

Douglas-Charles: METAR TDPD 200000Z 31003KT 9999 BKN016 24/22 Q1012=
Canefield: METAR TDCF 192200Z 09005KT 9999 SCT018 27/21 Q1010=